Westwood, Michigan
Current Conditions -  °F | °C
As of 11:49 AM on Tuesday 21 Oct 2014 (Local Time) from KAZO Reporting Station
Overcast Overcast  
Wind Chill: 46°   Ceiling: 2800
Heat Index: 48°   Visibility: 10mi
Dew Point: 45°   Wind: 6mph
Humidity: 87%   Direction: 20°NNE
Pressure: 30.1"   Gusts: NA
Location:  42.3033°N, 85.7028°W
Report Text: KAZO 211549Z 02005KT 10SM FEW014 BKN028 OVC034 09/07 A3010 RMK AO2 RAB1455E25 P0001
Loading
Personal Weather Stations






























Interactive Weather Map
Tropical Storm Tracking
New forecast layout! Learn more

10-Day Weather Forecast

Advertisements
Track Severe Weather on mobile